Time;durP1;ratioP1;P1;durP2;ratioP2;P2;SDS_P1;SDS_P2;PMS_P1;PMS_P2;Temp;Humidity;BMP_temperature;BMP_pressure;BME280_temperature;BME280_humidity;BME280_pressure;Samples;Min_cycle;Max_cycle;Signal;HPM_P1;HPM_P2
2021/12/16 00:06:36;;;;;;;;;47.00;37.50;;;;;;;;4895321;28;47041;-71
2021/12/16 00:09:00;;;;;;;;;42.25;35.00;;;;;;;;4895731;28;45445;-68
2021/12/16 00:19:33;;;;;;;;;48.25;38.00;;;;;;;;4895937;28;45362;-68
2021/12/16 00:28:58;;;;;;;;;53.00;39.75;;;;;;;;4901972;28;45374;-71
2021/12/16 00:33:44;;;;;;;;;45.50;36.50;;;;;;;;4896709;28;45770;-71
2021/12/16 00:36:11;;;;;;;;;44.25;35.75;;;;;;;;4906236;28;45522;-71
2021/12/16 00:38:37;;;;;;;;;42.25;34.25;;;;;;;;4898093;28;46951;-68
2021/12/16 00:41:03;;;;;;;;;45.50;37.25;;;;;;;;4917059;28;45572;-68
2021/12/16 00:48:38;;;;;;;;;39.50;33.50;;;;;;;;4955522;28;45334;-68
2021/12/16 00:56:47;;;;;;;;;42.00;33.50;;;;;;;;4962263;28;45563;-71
2021/12/16 00:59:14;;;;;;;;;41.00;35.00;;;;;;;;4959754;28;46145;-71
2021/12/16 01:06:52;;;;;;;;;43.50;34.50;;;;;;;;4968298;28;45770;-71
2021/12/16 01:34:10;;;;;;;;;41.75;32.75;;;;;;;;4954733;28;45742;-68
2021/12/16 01:47:11;;;;;;;;;42.00;34.00;;;;;;;;4957476;28;45483;-68
2021/12/16 01:52:33;;;;;;;;;45.00;35.00;;;;;;;;4965629;28;46071;-68
2021/12/16 01:57:43;;;;;;;;;45.25;34.75;;;;;;;;4956348;28;45274;-71
2021/12/16 02:00:17;;;;;;;;;41.00;30.00;;;;;;;;4959528;28;45507;-71
2021/12/16 02:02:48;;;;;;;;;42.25;35.75;;;;;;;;4956515;28;47068;-71
2021/12/16 02:05:25;;;;;;;;;41.75;31.50;;;;;;;;4957694;28;45583;-69
2021/12/16 02:10:29;;;;;;;;;43.00;33.75;;;;;;;;4966466;28;45408;-68
2021/12/16 02:13:29;;;;;;;;;34.75;31.75;;;;;;;;4965151;28;45615;-68
2021/12/16 02:30:26;;;;;;;;;35.50;28.00;;;;;;;;4964227;28;45355;-70
2021/12/16 02:32:55;;;;;;;;;36.50;31.25;;;;;;;;4958006;28;45541;-70
2021/12/16 02:35:33;;;;;;;;;40.75;35.50;;;;;;;;4957173;28;46246;-68
2021/12/16 02:38:00;;;;;;;;;42.00;34.75;;;;;;;;4953256;28;46053;-68
2021/12/16 02:40:26;;;;;;;;;40.75;31.25;;;;;;;;4968203;28;45515;-68
2021/12/16 02:50:49;;;;;;;;;38.50;32.25;;;;;;;;4957389;28;45398;-71
2021/12/16 02:53:14;;;;;;;;;39.25;32.00;;;;;;;;4956802;28;45860;-71
2021/12/16 02:55:39;;;;;;;;;42.00;32.67;;;;;;;;4963431;28;45705;-71
2021/12/16 02:58:05;;;;;;;;;40.25;29.75;;;;;;;;4956962;28;45524;-70
2021/12/16 03:00:43;;;;;;;;;39.25;33.00;;;;;;;;4967301;28;45426;-71
2021/12/16 03:03:08;;;;;;;;;35.25;29.50;;;;;;;;4955853;28;45530;-70
2021/12/16 03:05:34;;;;;;;;;39.25;36.00;;;;;;;;4956707;28;45633;-71
2021/12/16 03:07:59;;;;;;;;;39.50;31.00;;;;;;;;4956447;28;45532;-69
2021/12/16 03:13:02;;;;;;;;;46.25;37.25;;;;;;;;4965523;28;45401;-68
2021/12/16 03:15:50;;;;;;;;;38.00;32.50;;;;;;;;4955660;28;47274;-68
2021/12/16 03:21:12;;;;;;;;;48.50;36.25;;;;;;;;4957128;28;45443;-68
2021/12/16 03:37:15;;;;;;;;;50.50;41.50;;;;;;;;4958855;28;45804;-68
2021/12/16 03:39:49;;;;;;;;;53.25;40.25;;;;;;;;4960659;28;45472;-68
2021/12/16 03:42:16;;;;;;;;;46.00;35.50;;;;;;;;4958943;28;45282;-68
2021/12/16 03:45:05;;;;;;;;;53.00;36.00;;;;;;;;4962640;28;45483;-68
2021/12/16 03:47:42;;;;;;;;;54.25;40.50;;;;;;;;4955385;28;46548;-68
2021/12/16 03:50:11;;;;;;;;;52.75;39.00;;;;;;;;4956872;28;45514;-68
2021/12/16 03:52:37;;;;;;;;;55.75;41.75;;;;;;;;4955551;28;45440;-68
2021/12/16 03:55:02;;;;;;;;;57.75;42.75;;;;;;;;4955996;28;45380;-68
2021/12/16 03:57:30;;;;;;;;;58.50;42.75;;;;;;;;4956312;28;46481;-68
2021/12/16 03:59:55;;;;;;;;;45.75;39.50;;;;;;;;4956224;28;46009;-68
2021/12/16 04:02:32;;;;;;;;;45.75;37.25;;;;;;;;4954309;28;45523;-68
2021/12/16 04:04:58;;;;;;;;;58.00;45.00;;;;;;;;4956903;28;46911;-68
2021/12/16 04:07:26;;;;;;;;;54.25;42.75;;;;;;;;4966324;28;46568;-69
2021/12/16 04:09:52;;;;;;;;;50.50;42.25;;;;;;;;4948141;28;45379;-68
2021/12/16 04:12:20;;;;;;;;;57.00;42.25;;;;;;;;4956272;28;45307;-68
2021/12/16 04:14:46;;;;;;;;;53.75;44.50;;;;;;;;4960614;28;45563;-68
2021/12/16 04:17:12;;;;;;;;;59.50;43.25;;;;;;;;4955257;28;46620;-68
2021/12/16 04:19:37;;;;;;;;;55.00;42.25;;;;;;;;4955445;28;45593;-68
2021/12/16 04:22:10;;;;;;;;;61.00;48.33;;;;;;;;4955360;28;45502;-68
2021/12/16 04:24:35;;;;;;;;;61.75;48.00;;;;;;;;4954962;28;45417;-68
2021/12/16 04:27:01;;;;;;;;;59.00;45.25;;;;;;;;4956216;28;45542;-68
2021/12/16 04:29:26;;;;;;;;;56.75;45.25;;;;;;;;4955269;28;45438;-68
2021/12/16 04:31:53;;;;;;;;;62.33;49.00;;;;;;;;4957154;28;45485;-68
2021/12/16 04:34:18;;;;;;;;;62.00;46.50;;;;;;;;4955700;28;45361;-68
2021/12/16 04:36:43;;;;;;;;;60.00;47.25;;;;;;;;4955746;28;46685;-68
2021/12/16 04:39:12;;;;;;;;;61.25;45.50;;;;;;;;4961252;28;45376;-68
2021/12/16 04:41:39;;;;;;;;;68.75;49.25;;;;;;;;4956884;28;45554;-68
2021/12/16 04:44:07;;;;;;;;;66.75;47.50;;;;;;;;4957727;28;45595;-68
2021/12/16 04:46:32;;;;;;;;;61.50;48.75;;;;;;;;4964446;28;48580;-68
2021/12/16 04:48:58;;;;;;;;;55.25;45.50;;;;;;;;4955329;28;45329;-68
2021/12/16 04:51:25;;;;;;;;;57.00;45.75;;;;;;;;4956285;28;45451;-68
2021/12/16 04:53:50;;;;;;;;;64.25;48.25;;;;;;;;4958179;28;45607;-68
2021/12/16 04:56:16;;;;;;;;;59.50;48.75;;;;;;;;4959557;28;45573;-68
2021/12/16 04:58:43;;;;;;;;;59.50;46.50;;;;;;;;4954771;28;45926;-68
2021/12/16 05:01:09;;;;;;;;;64.75;48.00;;;;;;;;4955262;28;46887;-68
2021/12/16 05:03:35;;;;;;;;;62.33;49.67;;;;;;;;4966525;28;45480;-68
2021/12/16 05:06:01;;;;;;;;;66.00;51.00;;;;;;;;4954738;28;45590;-68
2021/12/16 05:08:26;;;;;;;;;63.75;48.75;;;;;;;;4949182;28;45429;-69
2021/12/16 05:10:54;;;;;;;;;55.25;45.50;;;;;;;;4960084;28;45435;-68
2021/12/16 05:13:23;;;;;;;;;66.75;51.25;;;;;;;;4955065;28;45522;-68
2021/12/16 05:15:48;;;;;;;;;60.00;48.75;;;;;;;;4970141;28;46341;-68
2021/12/16 05:18:20;;;;;;;;;63.67;49.00;;;;;;;;4970711;28;45280;-69
2021/12/16 05:20:46;;;;;;;;;63.00;48.75;;;;;;;;4955004;28;45405;-68
2021/12/16 05:26:17;;;;;;;;;57.75;47.25;;;;;;;;4954795;28;45465;-71
2021/12/16 05:28:53;;;;;;;;;61.75;48.25;;;;;;;;4971690;28;45395;-68
2021/12/16 05:31:21;;;;;;;;;60.75;48.00;;;;;;;;4966782;28;45491;-68
2021/12/16 05:33:47;;;;;;;;;57.00;43.25;;;;;;;;4954173;28;45365;-68
2021/12/16 05:36:12;;;;;;;;;59.50;46.75;;;;;;;;4957622;28;45476;-68
2021/12/16 05:38:38;;;;;;;;;57.67;48.33;;;;;;;;4957251;28;45329;-68
2021/12/16 05:41:04;;;;;;;;;59.50;47.00;;;;;;;;4958144;28;45433;-68
2021/12/16 05:43:30;;;;;;;;;68.25;46.75;;;;;;;;4957533;28;45468;-68
2021/12/16 05:45:57;;;;;;;;;63.00;49.50;;;;;;;;4969295;28;45615;-68
2021/12/16 05:48:23;;;;;;;;;60.25;46.00;;;;;;;;4965766;28;45346;-68
2021/12/16 05:50:50;;;;;;;;;65.00;48.50;;;;;;;;4963711;28;45392;-68
2021/12/16 05:53:16;;;;;;;;;58.25;47.00;;;;;;;;4957701;28;46993;-68
2021/12/16 05:55:41;;;;;;;;;63.00;48.75;;;;;;;;4959472;28;45660;-69
2021/12/16 05:58:08;;;;;;;;;67.75;47.50;;;;;;;;4957350;28;45353;-68
2021/12/16 06:00:41;;;;;;;;;60.25;48.25;;;;;;;;4958043;28;45558;-68
2021/12/16 06:03:07;;;;;;;;;57.50;44.75;;;;;;;;4962323;28;45436;-69
2021/12/16 06:05:32;;;;;;;;;59.00;46.00;;;;;;;;4973368;28;46821;-69
2021/12/16 06:07:57;;;;;;;;;57.00;44.67;;;;;;;;4950766;28;45503;-68
2021/12/16 06:12:53;;;;;;;;;52.00;40.25;;;;;;;;4957581;28;45370;-71
2021/12/16 06:15:35;;;;;;;;;61.67;47.00;;;;;;;;4959526;28;46452;-71
2021/12/16 06:26:35;;;;;;;;;65.75;47.25;;;;;;;;4956832;28;45792;-71
2021/12/16 06:29:02;;;;;;;;;57.75;44.50;;;;;;;;4958465;28;46402;-71
2021/12/16 06:31:27;;;;;;;;;61.25;47.00;;;;;;;;4967556;28;45448;-71
2021/12/16 06:33:53;;;;;;;;;64.00;47.75;;;;;;;;4957404;28;45461;-69
2021/12/16 06:36:18;;;;;;;;;60.33;49.33;;;;;;;;4960988;28;47310;-68
2021/12/16 06:38:43;;;;;;;;;60.00;48.67;;;;;;;;4957410;28;45664;-68
2021/12/16 06:41:08;;;;;;;;;70.00;51.67;;;;;;;;4957708;28;45392;-72
2021/12/16 06:43:35;;;;;;;;;65.33;52.00;;;;;;;;4956872;28;45292;-70
2021/12/16 06:46:04;;;;;;;;;64.75;50.50;;;;;;;;4954050;28;45464;-70
2021/12/16 06:48:33;;;;;;;;;68.00;50.00;;;;;;;;4955337;28;45899;-69
2021/12/16 06:51:09;;;;;;;;;65.75;52.25;;;;;;;;4956305;28;45440;-69
2021/12/16 06:54:03;;;;;;;;;65.00;51.00;;;;;;;;4956012;28;45480;-69
2021/12/16 06:56:36;;;;;;;;;65.50;50.00;;;;;;;;4955977;28;46449;-69
2021/12/16 06:59:07;;;;;;;;;65.50;48.50;;;;;;;;4956157;28;45472;-70
2021/12/16 07:01:41;;;;;;;;;62.50;50.25;;;;;;;;4956935;28;45517;-69
2021/12/16 07:04:08;;;;;;;;;63.25;48.25;;;;;;;;4964260;28;45506;-69
2021/12/16 07:06:35;;;;;;;;;66.25;51.00;;;;;;;;4955839;28;46586;-69
2021/12/16 07:09:09;;;;;;;;;58.50;48.00;;;;;;;;4956045;28;45471;-69
2021/12/16 07:11:40;;;;;;;;;67.75;51.25;;;;;;;;4955527;28;45482;-70
2021/12/16 07:14:05;;;;;;;;;59.25;48.00;;;;;;;;4956695;28;45519;-69
2021/12/16 07:16:31;;;;;;;;;62.75;48.50;;;;;;;;4955981;28;46156;-69
2021/12/16 07:18:57;;;;;;;;;60.33;46.00;;;;;;;;4956224;28;45282;-69
2021/12/16 07:21:23;;;;;;;;;62.00;49.00;;;;;;;;4956692;28;45363;-69
2021/12/16 07:23:48;;;;;;;;;56.75;43.25;;;;;;;;4956723;28;45364;-69
2021/12/16 07:26:13;;;;;;;;;66.00;49.25;;;;;;;;4956297;28;46476;-69
2021/12/16 07:28:39;;;;;;;;;56.00;46.00;;;;;;;;4956178;28;45356;-70
2021/12/16 07:31:04;;;;;;;;;60.00;47.00;;;;;;;;4970179;28;45456;-70
2021/12/16 07:33:29;;;;;;;;;65.00;50.67;;;;;;;;4956040;28;45370;-69
2021/12/16 07:35:55;;;;;;;;;66.33;50.00;;;;;;;;4956571;28;45392;-69
2021/12/16 07:38:21;;;;;;;;;68.50;50.25;;;;;;;;4955696;28;45418;-69
2021/12/16 07:40:47;;;;;;;;;66.50;48.75;;;;;;;;4956041;28;45358;-69
2021/12/16 07:43:24;;;;;;;;;62.25;48.25;;;;;;;;4957162;28;45465;-69
2021/12/16 07:45:51;;;;;;;;;59.50;46.75;;;;;;;;4955727;28;46435;-69
2021/12/16 07:48:18;;;;;;;;;65.75;48.75;;;;;;;;4956372;28;45504;-70
2021/12/16 07:50:45;;;;;;;;;68.50;48.75;;;;;;;;4956293;28;45474;-69
2021/12/16 07:53:10;;;;;;;;;62.25;49.25;;;;;;;;4955961;28;45441;-69
2021/12/16 07:55:35;;;;;;;;;61.00;47.00;;;;;;;;4955716;28;45618;-69
2021/12/16 07:58:01;;;;;;;;;63.75;48.25;;;;;;;;4962715;28;45332;-69
2021/12/16 08:00:31;;;;;;;;;59.50;48.00;;;;;;;;4955279;28;45409;-69
2021/12/16 08:02:56;;;;;;;;;56.50;45.25;;;;;;;;4964778;28;45402;-69
2021/12/16 08:05:25;;;;;;;;;63.33;48.67;;;;;;;;4959095;28;46726;-69
2021/12/16 08:07:50;;;;;;;;;60.25;47.75;;;;;;;;4956187;28;45298;-69
2021/12/16 08:10:17;;;;;;;;;63.75;46.25;;;;;;;;4955989;28;45535;-69
2021/12/16 08:12:43;;;;;;;;;63.00;50.00;;;;;;;;4955849;28;45434;-69
2021/12/16 08:15:09;;;;;;;;;63.33;51.00;;;;;;;;4955619;28;45282;-69
2021/12/16 08:17:34;;;;;;;;;64.50;49.25;;;;;;;;4955349;28;45309;-69
2021/12/16 08:19:59;;;;;;;;;60.33;47.33;;;;;;;;4955512;28;45488;-70
2021/12/16 08:22:24;;;;;;;;;64.00;45.25;;;;;;;;4955596;28;45440;-70
2021/12/16 08:24:49;;;;;;;;;62.33;46.67;;;;;;;;4958790;28;46221;-69
2021/12/16 08:27:16;;;;;;;;;62.33;49.67;;;;;;;;4955823;28;45243;-70
2021/12/16 08:29:42;;;;;;;;;67.25;50.75;;;;;;;;4955479;28;45417;-70
2021/12/16 08:32:08;;;;;;;;;63.00;52.50;;;;;;;;4963635;28;45574;-69
2021/12/16 08:34:37;;;;;;;;;65.25;50.00;;;;;;;;4960385;28;45879;-69
2021/12/16 08:37:03;;;;;;;;;64.75;48.50;;;;;;;;4955582;28;47279;-69
2021/12/16 08:39:28;;;;;;;;;59.75;43.25;;;;;;;;4955386;28;45413;-68
2021/12/16 08:41:55;;;;;;;;;62.25;50.25;;;;;;;;4955203;28;45367;-69
2021/12/16 08:44:20;;;;;;;;;57.75;47.25;;;;;;;;4955283;28;46412;-69
2021/12/16 08:46:49;;;;;;;;;58.67;46.00;;;;;;;;4956791;28;45812;-69
2021/12/16 08:49:15;;;;;;;;;60.00;47.25;;;;;;;;4968051;28;45427;-70
2021/12/16 08:51:43;;;;;;;;;59.00;45.75;;;;;;;;4955273;28;45408;-70
2021/12/16 08:54:08;;;;;;;;;61.50;46.50;;;;;;;;4957301;28;46277;-70
2021/12/16 08:56:34;;;;;;;;;56.00;45.33;;;;;;;;4956803;28;45356;-71
2021/12/16 08:59:00;;;;;;;;;52.50;42.25;;;;;;;;4955100;28;45567;-70
2021/12/16 09:01:27;;;;;;;;;59.00;45.25;;;;;;;;4957644;28;45392;-70
2021/12/16 09:03:54;;;;;;;;;60.75;45.00;;;;;;;;4965442;28;47325;-69
2021/12/16 09:06:19;;;;;;;;;61.25;44.75;;;;;;;;4961334;28;45944;-71
2021/12/16 09:08:44;;;;;;;;;58.50;42.50;;;;;;;;4955283;28;45400;-70
2021/12/16 09:11:13;;;;;;;;;53.00;42.33;;;;;;;;4955477;28;45383;-69
2021/12/16 09:13:39;;;;;;;;;53.00;43.25;;;;;;;;4959971;28;45480;-70
2021/12/16 09:16:06;;;;;;;;;61.00;46.75;;;;;;;;4958107;28;46541;-71
2021/12/16 09:18:32;;;;;;;;;59.00;44.50;;;;;;;;4958711;28;45324;-71
2021/12/16 09:20:59;;;;;;;;;55.25;44.25;;;;;;;;4958621;28;45387;-71
2021/12/16 09:23:25;;;;;;;;;53.25;42.00;;;;;;;;4959639;28;45644;-71
2021/12/16 09:25:50;;;;;;;;;54.00;42.25;;;;;;;;4957459;28;45446;-70
2021/12/16 09:28:17;;;;;;;;;52.50;41.00;;;;;;;;4958862;28;45501;-70
2021/12/16 09:30:43;;;;;;;;;60.50;45.25;;;;;;;;4970963;28;45429;-70
2021/12/16 09:33:13;;;;;;;;;55.50;42.75;;;;;;;;4963139;28;46782;-70
2021/12/16 09:35:39;;;;;;;;;50.00;40.25;;;;;;;;4963649;28;45495;-71
2021/12/16 09:38:06;;;;;;;;;52.00;42.50;;;;;;;;4952790;28;46400;-70
2021/12/16 09:40:35;;;;;;;;;47.75;38.75;;;;;;;;4947015;28;45634;-70
2021/12/16 09:43:02;;;;;;;;;56.25;45.00;;;;;;;;4965308;28;45735;-70
2021/12/16 09:45:27;;;;;;;;;49.25;38.00;;;;;;;;4969890;28;45492;-70
2021/12/16 09:47:54;;;;;;;;;54.00;43.50;;;;;;;;4957055;28;45500;-70
2021/12/16 09:50:22;;;;;;;;;53.00;41.00;;;;;;;;4957757;28;45535;-71
2021/12/16 09:52:47;;;;;;;;;49.00;41.00;;;;;;;;4955009;28;45492;-71
2021/12/16 09:55:12;;;;;;;;;54.67;44.33;;;;;;;;4951367;28;45700;-70
2021/12/16 09:57:38;;;;;;;;;55.50;44.75;;;;;;;;4952480;28;45294;-70
2021/12/16 10:00:05;;;;;;;;;51.00;43.00;;;;;;;;4951051;28;45641;-70
2021/12/16 10:02:30;;;;;;;;;58.00;43.00;;;;;;;;4958888;28;45377;-71
2021/12/16 10:04:56;;;;;;;;;53.67;42.00;;;;;;;;4956880;28;45629;-71
2021/12/16 10:07:23;;;;;;;;;52.75;42.00;;;;;;;;4954046;28;45589;-71
2021/12/16 10:09:49;;;;;;;;;51.75;41.75;;;;;;;;4955012;28;45671;-71
2021/12/16 10:12:19;;;;;;;;;49.75;42.00;;;;;;;;4950961;28;46598;-71
2021/12/16 10:17:32;;;;;;;;;53.75;42.25;;;;;;;;4959202;28;45472;-71
2021/12/16 10:20:04;;;;;;;;;55.50;41.00;;;;;;;;4953327;28;45569;-70
2021/12/16 10:22:39;;;;;;;;;45.75;35.75;;;;;;;;4952955;28;45755;-71
2021/12/16 10:25:40;;;;;;;;;56.25;43.00;;;;;;;;4968329;28;45885;-71
2021/12/16 10:28:08;;;;;;;;;57.75;44.50;;;;;;;;4955710;28;45741;-71
2021/12/16 10:30:45;;;;;;;;;52.50;41.50;;;;;;;;4968870;28;45425;-71
2021/12/16 10:33:15;;;;;;;;;59.50;44.25;;;;;;;;4974599;28;45490;-71
2021/12/16 10:35:42;;;;;;;;;58.75;42.00;;;;;;;;4967940;28;46069;-71
2021/12/16 10:38:07;;;;;;;;;50.00;41.50;;;;;;;;4971234;28;45404;-71
2021/12/16 10:40:52;;;;;;;;;54.25;43.50;;;;;;;;4981247;28;45532;-70
2021/12/16 10:43:32;;;;;;;;;57.75;44.50;;;;;;;;4970281;28;45569;-70
2021/12/16 10:46:23;;;;;;;;;60.50;44.75;;;;;;;;4962233;28;45453;-70
2021/12/16 10:48:55;;;;;;;;;59.00;45.00;;;;;;;;4967605;28;45555;-71
2021/12/16 10:51:21;;;;;;;;;59.75;46.00;;;;;;;;4985003;28;45428;-71
2021/12/16 10:53:46;;;;;;;;;58.25;46.00;;;;;;;;4966056;28;46320;-71
2021/12/16 10:56:12;;;;;;;;;63.33;45.00;;;;;;;;4966554;28;45461;-71
2021/12/16 10:58:55;;;;;;;;;59.00;46.50;;;;;;;;4966314;28;45568;-70
2021/12/16 11:01:39;;;;;;;;;61.00;45.50;;;;;;;;4967329;28;45630;-71
2021/12/16 11:04:08;;;;;;;;;51.75;40.50;;;;;;;;4938168;28;45586;-70
2021/12/16 11:06:38;;;;;;;;;55.25;44.25;;;;;;;;4950999;28;45333;-71
2021/12/16 11:09:23;;;;;;;;;58.50;45.75;;;;;;;;4949726;28;45467;-71
2021/12/16 11:11:48;;;;;;;;;58.25;43.00;;;;;;;;4949240;28;45472;-71
2021/12/16 11:14:20;;;;;;;;;53.00;42.50;;;;;;;;4949727;28;45431;-71
2021/12/16 11:16:55;;;;;;;;;59.25;44.25;;;;;;;;4948862;28;45484;-71
2021/12/16 11:19:39;;;;;;;;;53.00;40.50;;;;;;;;4950069;28;45416;-71
2021/12/16 11:22:04;;;;;;;;;54.50;41.00;;;;;;;;4955848;28;45601;-70
2021/12/16 11:24:29;;;;;;;;;58.50;43.00;;;;;;;;4966783;28;46716;-71
2021/12/16 11:26:55;;;;;;;;;51.00;41.33;;;;;;;;4954922;28;45456;-70
2021/12/16 11:29:22;;;;;;;;;57.67;42.00;;;;;;;;4952658;28;45343;-70
2021/12/16 11:31:48;;;;;;;;;53.50;41.00;;;;;;;;4983928;28;45573;-70
2021/12/16 11:34:14;;;;;;;;;59.00;45.50;;;;;;;;4953454;28;45329;-70
2021/12/16 11:36:42;;;;;;;;;56.25;44.50;;;;;;;;4979755;28;45543;-71
2021/12/16 11:39:13;;;;;;;;;54.50;41.00;;;;;;;;4957803;28;45408;-70
2021/12/16 11:41:40;;;;;;;;;57.75;44.00;;;;;;;;4952969;28;45373;-70
2021/12/16 11:44:16;;;;;;;;;53.50;38.75;;;;;;;;4956968;28;45409;-70
2021/12/16 11:46:48;;;;;;;;;55.50;42.50;;;;;;;;4952678;28;45337;-70
2021/12/16 11:49:21;;;;;;;;;58.00;45.25;;;;;;;;4955205;28;45369;-70
2021/12/16 11:52:05;;;;;;;;;57.50;44.50;;;;;;;;4955939;28;45562;-71
2021/12/16 11:54:34;;;;;;;;;61.50;45.00;;;;;;;;4953457;28;46744;-70
2021/12/16 11:57:02;;;;;;;;;48.00;38.50;;;;;;;;4955416;28;45505;-70
2021/12/16 11:59:34;;;;;;;;;58.75;43.75;;;;;;;;4957119;28;45665;-70
2021/12/16 12:01:59;;;;;;;;;54.50;40.50;;;;;;;;4955415;28;45293;-70
2021/12/16 12:04:27;;;;;;;;;54.25;42.00;;;;;;;;4955096;28;47457;-70
2021/12/16 12:06:52;;;;;;;;;54.75;43.50;;;;;;;;4939759;28;45468;-70
2021/12/16 12:09:18;;;;;;;;;46.00;38.00;;;;;;;;4970847;28;45342;-71
2021/12/16 12:11:43;;;;;;;;;55.67;41.33;;;;;;;;4955583;28;45448;-71
2021/12/16 12:14:15;;;;;;;;;47.50;40.00;;;;;;;;4954991;28;46072;-70
2021/12/16 12:16:43;;;;;;;;;50.75;39.75;;;;;;;;4955088;28;45381;-70
2021/12/16 12:19:14;;;;;;;;;52.50;40.75;;;;;;;;4955916;28;45473;-70
2021/12/16 12:21:54;;;;;;;;;53.25;38.00;;;;;;;;4955381;28;45687;-70
2021/12/16 12:24:21;;;;;;;;;40.50;33.75;;;;;;;;4955407;28;46583;-70
2021/12/16 12:26:53;;;;;;;;;47.75;38.00;;;;;;;;4955639;28;45538;-70
2021/12/16 12:29:24;;;;;;;;;51.00;38.50;;;;;;;;4955772;28;45349;-71
2021/12/16 12:31:52;;;;;;;;;43.25;34.00;;;;;;;;4957408;28;45520;-70
2021/12/16 12:34:18;;;;;;;;;46.75;34.50;;;;;;;;4954972;28;46839;-70
2021/12/16 12:36:44;;;;;;;;;42.50;34.00;;;;;;;;4951144;28;45352;-70
2021/12/16 12:39:11;;;;;;;;;39.75;32.50;;;;;;;;4949184;28;45459;-70
2021/12/16 12:41:37;;;;;;;;;43.00;34.25;;;;;;;;4948120;28;45528;-70
2021/12/16 12:44:04;;;;;;;;;41.50;32.25;;;;;;;;4950164;28;45828;-71
2021/12/16 12:46:30;;;;;;;;;44.50;34.00;;;;;;;;4955886;28;45852;-70
2021/12/16 12:48:59;;;;;;;;;41.50;33.50;;;;;;;;4986438;28;45438;-70
2021/12/16 12:51:32;;;;;;;;;49.25;36.25;;;;;;;;4953404;28;45382;-71
2021/12/16 12:53:58;;;;;;;;;45.25;32.75;;;;;;;;4950746;28;46444;-70
2021/12/16 12:56:33;;;;;;;;;41.00;29.50;;;;;;;;4951346;28;45515;-71
2021/12/16 12:59:04;;;;;;;;;44.00;33.75;;;;;;;;4951269;28;45421;-71
2021/12/16 13:01:34;;;;;;;;;36.75;29.50;;;;;;;;4954238;28;45466;-71
2021/12/16 13:04:04;;;;;;;;;39.00;32.50;;;;;;;;4954537;28;45722;-71
2021/12/16 13:06:30;;;;;;;;;39.75;34.00;;;;;;;;4952630;28;45457;-70
2021/12/16 13:08:55;;;;;;;;;49.00;37.00;;;;;;;;4948799;28;45622;-71
2021/12/16 13:11:29;;;;;;;;;42.50;35.75;;;;;;;;4956883;28;45370;-71
2021/12/16 13:14:35;;;;;;;;;41.00;33.50;;;;;;;;4955561;28;46163;-71
2021/12/16 13:30:59;;;;;;;;;27.50;25.50;;;;;;;;4962506;28;45535;-72
2021/12/16 13:33:35;;;;;;;;;34.75;27.00;;;;;;;;4958408;28;45493;-71
2021/12/16 13:36:04;;;;;;;;;34.50;28.25;;;;;;;;4954988;28;46581;-72
2021/12/16 13:38:38;;;;;;;;;36.25;32.00;;;;;;;;4953429;28;45885;-72
2021/12/16 13:41:23;;;;;;;;;38.25;30.25;;;;;;;;4951145;28;45615;-71
2021/12/16 13:43:56;;;;;;;;;34.25;30.00;;;;;;;;4952134;28;45642;-72
2021/12/16 13:46:44;;;;;;;;;32.00;26.00;;;;;;;;4951199;28;46202;-72
2021/12/16 13:58:19;;;;;;;;;32.25;31.00;;;;;;;;4946371;28;45541;-72
2021/12/16 14:06:27;;;;;;;;;41.50;33.00;;;;;;;;4964107;28;45479;-72
2021/12/16 14:08:48;;;;;;;;;36.25;31.50;;;;;;;;4955161;28;46276;-72
2021/12/16 14:35:54;;;;;;;;;33.00;29.75;;;;;;;;4951841;28;45405;-72
2021/12/16 14:38:54;;;;;;;;;31.25;27.75;;;;;;;;4955963;28;45568;-72
2021/12/16 14:44:19;;;;;;;;;38.75;31.50;;;;;;;;4949470;28;45662;-71
2021/12/16 14:47:00;;;;;;;;;47.50;36.25;;;;;;;;4957504;28;45581;-72
2021/12/16 14:49:29;;;;;;;;;42.75;33.50;;;;;;;;4940822;28;45480;-71
2021/12/16 14:51:57;;;;;;;;;41.25;34.25;;;;;;;;4962048;28;46155;-72
2021/12/16 14:54:23;;;;;;;;;44.75;33.50;;;;;;;;4950530;28;45461;-72
2021/12/16 14:56:48;;;;;;;;;42.00;35.00;;;;;;;;4951484;28;45895;-72
2021/12/16 14:59:14;;;;;;;;;39.00;28.33;;;;;;;;4951261;28;45472;-72
2021/12/16 15:01:41;;;;;;;;;41.00;34.00;;;;;;;;4949130;28;45492;-72
2021/12/16 15:04:08;;;;;;;;;36.00;29.75;;;;;;;;4952325;28;45769;-72
2021/12/16 15:06:42;;;;;;;;;38.00;33.00;;;;;;;;4951320;28;45447;-71
2021/12/16 15:09:16;;;;;;;;;38.75;33.25;;;;;;;;4952118;28;45523;-72
2021/12/16 15:11:49;;;;;;;;;40.25;33.75;;;;;;;;4952749;28;45507;-72
2021/12/16 15:14:31;;;;;;;;;45.50;34.50;;;;;;;;4958605;28;46014;-72
2021/12/16 15:17:07;;;;;;;;;47.75;35.25;;;;;;;;4958686;28;45569;-72
2021/12/16 15:37:05;;;;;;;;;41.25;34.00;;;;;;;;4951331;28;45356;-72
2021/12/16 15:40:07;;;;;;;;;47.50;37.00;;;;;;;;4950544;28;45498;-71
2021/12/16 15:42:56;;;;;;;;;43.50;33.75;;;;;;;;4934666;28;45775;-72
2021/12/16 15:45:27;;;;;;;;;38.25;34.00;;;;;;;;4939124;28;45569;-71
2021/12/16 15:47:58;;;;;;;;;48.00;35.25;;;;;;;;4980005;28;45447;-71
2021/12/16 15:50:46;;;;;;;;;41.75;34.50;;;;;;;;4948777;28;45486;-72
2021/12/16 15:53:15;;;;;;;;;32.00;23.25;;;;;;;;4930904;28;45614;-72
2021/12/16 15:55:43;;;;;;;;;40.25;35.00;;;;;;;;4930709;28;46084;-71
2021/12/16 15:58:10;;;;;;;;;39.50;34.25;;;;;;;;4930055;28;45989;-71
2021/12/16 16:00:38;;;;;;;;;49.50;36.00;;;;;;;;4930853;28;45553;-71
2021/12/16 16:03:05;;;;;;;;;46.50;34.75;;;;;;;;4930309;28;45782;-71
2021/12/16 16:05:41;;;;;;;;;51.50;38.00;;;;;;;;4935044;28;46715;-71
2021/12/16 16:08:08;;;;;;;;;43.50;35.25;;;;;;;;4935657;28;45890;-71
2021/12/16 16:10:34;;;;;;;;;49.25;40.00;;;;;;;;4935424;28;45547;-71
2021/12/16 16:13:10;;;;;;;;;51.25;36.50;;;;;;;;4935299;28;45781;-71
2021/12/16 16:15:36;;;;;;;;;51.75;39.00;;;;;;;;4935112;28;46513;-71
2021/12/16 16:18:34;;;;;;;;;53.00;38.75;;;;;;;;4934791;28;46051;-71
2021/12/16 16:20:48;;;;;;;;;49.75;36.00;;;;;;;;4934369;28;45572;-71
2021/12/16 16:23:15;;;;;;;;;45.25;36.00;;;;;;;;4935182;28;45310;-71
2021/12/16 16:25:41;;;;;;;;;46.00;36.50;;;;;;;;4935153;28;47519;-71
2021/12/16 16:28:08;;;;;;;;;51.75;40.00;;;;;;;;4935729;28;46064;-71
2021/12/16 16:30:33;;;;;;;;;51.75;40.75;;;;;;;;4950550;28;45627;-71
2021/12/16 16:33:13;;;;;;;;;43.00;36.25;;;;;;;;4958086;28;45499;-72
2021/12/16 16:35:44;;;;;;;;;51.75;39.00;;;;;;;;4952084;28;46584;-71
2021/12/16 16:38:14;;;;;;;;;51.00;35.25;;;;;;;;4952114;28;45339;-72
2021/12/16 16:40:41;;;;;;;;;54.75;37.00;;;;;;;;4952092;28;45368;-71
2021/12/16 16:43:38;;;;;;;;;56.50;38.25;;;;;;;;4956940;28;45294;-71
2021/12/16 16:46:10;;;;;;;;;46.00;37.25;;;;;;;;4953392;28;45587;-71
2021/12/16 16:51:11;;;;;;;;;46.25;36.25;;;;;;;;4951447;28;45514;-71
2021/12/16 16:53:44;;;;;;;;;46.00;35.50;;;;;;;;4954331;28;45528;-71
2021/12/16 16:56:09;;;;;;;;;41.75;35.00;;;;;;;;4953582;28;46223;-71
2021/12/16 16:58:34;;;;;;;;;53.00;37.00;;;;;;;;4957831;28;45346;-71
2021/12/16 17:01:02;;;;;;;;;42.67;36.67;;;;;;;;4960835;28;45519;-71
2021/12/16 17:03:27;;;;;;;;;44.75;36.75;;;;;;;;4953477;28;45605;-72
2021/12/16 17:05:57;;;;;;;;;43.33;36.33;;;;;;;;4953953;28;45649;-71
2021/12/16 17:08:26;;;;;;;;;53.75;38.25;;;;;;;;4953833;28;45366;-71
2021/12/16 17:10:54;;;;;;;;;42.25;34.50;;;;;;;;4953895;28;45520;-71
2021/12/16 17:13:24;;;;;;;;;45.75;37.00;;;;;;;;4954038;28;45498;-71
2021/12/16 17:18:22;;;;;;;;;48.50;37.75;;;;;;;;4953182;28;45458;-71
2021/12/16 17:20:48;;;;;;;;;48.25;37.25;;;;;;;;4951540;28;45569;-71
2021/12/16 17:23:14;;;;;;;;;51.75;40.75;;;;;;;;4951721;28;45416;-71
2021/12/16 17:25:39;;;;;;;;;54.25;39.25;;;;;;;;4954455;28;45491;-71
2021/12/16 17:28:04;;;;;;;;;43.67;37.00;;;;;;;;4955141;28;45336;-71
2021/12/16 17:30:31;;;;;;;;;48.25;36.75;;;;;;;;4955143;28;45328;-71
2021/12/16 17:32:57;;;;;;;;;52.50;36.00;;;;;;;;4956041;28;45325;-71
2021/12/16 17:35:31;;;;;;;;;47.25;37.25;;;;;;;;4957478;28;45429;-71
2021/12/16 17:38:00;;;;;;;;;49.75;37.00;;;;;;;;4957807;28;47877;-71
2021/12/16 17:40:28;;;;;;;;;43.50;35.00;;;;;;;;4957995;28;45360;-72
2021/12/16 17:42:58;;;;;;;;;47.00;37.25;;;;;;;;4958117;28;45522;-71
2021/12/16 17:45:29;;;;;;;;;44.00;35.25;;;;;;;;4954450;28;45605;-71
2021/12/16 17:47:55;;;;;;;;;47.50;38.50;;;;;;;;4958261;28;45389;-71
2021/12/16 17:50:22;;;;;;;;;44.00;37.50;;;;;;;;4957921;28;45558;-71
2021/12/16 17:52:49;;;;;;;;;46.75;37.25;;;;;;;;4957512;28;45353;-71
2021/12/16 17:55:17;;;;;;;;;45.50;34.75;;;;;;;;4957763;28;45747;-71
2021/12/16 17:57:44;;;;;;;;;47.25;36.00;;;;;;;;4957647;28;45463;-71
2021/12/16 18:00:12;;;;;;;;;48.00;38.50;;;;;;;;4958349;28;45358;-71
2021/12/16 18:02:44;;;;;;;;;52.00;37.25;;;;;;;;4957833;28;45666;-71
2021/12/16 18:05:09;;;;;;;;;51.00;40.50;;;;;;;;4957913;28;46418;-71
2021/12/16 18:07:38;;;;;;;;;53.00;37.33;;;;;;;;4957096;28;45289;-71